San Angelo's Hourly Summary for Sunday, July 8, 2018
Hour Temp
(f)
RH
(%)
Solar Rad.
(MJ/m2)
Rainfall
(in)
Wind
(mph)
7/8/2018 12:00 AM 75 72 0 0 0.59
7/8/2018 1:00 AM 74 73 0 0 1.34
7/8/2018 2:00 AM 75 76 0 0 3.63
7/8/2018 3:00 AM 73 84 0 0 0.86
7/8/2018 4:00 AM 73 86 0 0 1.03
7/8/2018 5:00 AM 71 87 0 0 0.36
7/8/2018 6:00 AM 72 87 0 0 2.21
7/8/2018 7:00 AM 72 82 0.01 0 1.64
7/8/2018 8:00 AM 73 75 0.3 0 0.48
7/8/2018 9:00 AM 76 65 0.96 0 3.17
7/8/2018 10:00 AM 79 52 1.61 0 1.78
7/8/2018 11:00 AM 82 49 2.23 0 3.56
7/8/2018 12:00 PM 84 46 2.74 0 3.75
7/8/2018 1:00 PM 86 41 3.14 0 5.03
7/8/2018 2:00 PM 88 35 3.08 0 5.28
7/8/2018 3:00 PM 89 35 2.45 0 6.54
7/8/2018 4:00 PM 91 30 2.9 0 6.36
7/8/2018 5:00 PM 93 26 2.57 0 6.35
7/8/2018 6:00 PM 92 27 1.93 0 10.93
7/8/2018 7:00 PM 89 35 1.07 0 11.53
7/8/2018 8:00 PM 87 42 0.12 0 7.78
7/8/2018 9:00 PM 80 42 0.01 0 6.72
7/8/2018 10:00 PM 76 67 0 0 6.06
7/8/2018 11:00 PM 77 66 0 0 6.5
Data Summary 80 57 25.12 0.00 4.31